createdAt,value
2023-02-12T00:00:19.401Z,98540.19
2023-02-12T00:01:22.322Z,98538.31
2023-02-12T00:02:24.179Z,98539.03
2023-02-12T00:03:26.086Z,98545.94
2023-02-12T00:04:28.038Z,98548.44
2023-02-12T00:05:29.936Z,98550.91
2023-02-12T00:06:31.780Z,98545.75
2023-02-12T00:07:33.658Z,98547.25
2023-02-12T00:08:36.094Z,98551.59
2023-02-12T00:09:38.029Z,98549.03
2023-02-12T00:10:43.864Z,98549.84
2023-02-12T00:11:45.822Z,98553.13
2023-02-12T00:12:47.737Z,98548.78
2023-02-12T00:13:50.033Z,98556.50
2023-02-12T00:14:51.808Z,98550.53
2023-02-12T00:15:54.021Z,98547.84
2023-02-12T00:16:56.223Z,98542.53
2023-02-12T00:17:58.117Z,98550.53
2023-02-12T00:19:00.216Z,98552.31
2023-02-12T00:20:02.452Z,98550.66
2023-02-12T00:21:05.109Z,98550.66
2023-02-12T00:22:07.038Z,98548.88
2023-02-12T00:23:08.949Z,98550.66
2023-02-12T00:24:10.895Z,98553.22
2023-02-12T00:25:14.217Z,98555.00
2023-02-12T00:26:17.771Z,98547.38
2023-02-12T00:27:19.693Z,98555.22
2023-02-12T00:28:21.758Z,98551.00
2023-02-12T00:29:23.621Z,98559.66
2023-02-12T00:30:25.594Z,98554.41
2023-02-12T00:31:28.708Z,98549.25
2023-02-12T00:32:30.620Z,98550.91
2023-02-12T00:33:32.474Z,98557.78
2023-02-12T00:34:34.345Z,98555.22
2023-02-12T00:35:36.289Z,98556.06
2023-02-12T00:36:38.137Z,98554.41
2023-02-12T00:37:39.987Z,98564.72
2023-02-12T00:38:41.887Z,98558.50
2023-02-12T00:39:44.159Z,98566.94
2023-02-12T00:40:45.985Z,98566.03
2023-02-12T00:41:47.873Z,98575.41
2023-02-12T00:42:49.705Z,98571.88
2023-02-12T00:43:51.746Z,98561.56
2023-02-12T00:44:53.594Z,98568.34
2023-02-12T00:45:55.719Z,98574.59
2023-02-12T00:46:58.280Z,98575.41
2023-02-12T00:48:00.318Z,98575.41
2023-02-12T00:49:03.712Z,98575.41
2023-02-12T00:50:05.952Z,98578.69
2023-02-12T00:51:08.113Z,98584.69
2023-02-12T00:52:10.040Z,98575.88
2023-02-12T00:53:12.711Z,98577.66
2023-02-12T00:54:14.619Z,98575.28
2023-02-12T00:55:16.530Z,98574.59
2023-02-12T00:56:18.298Z,98571.06
2023-02-12T00:57:20.085Z,98572.81
2023-02-12T00:58:22.070Z,98569.31
2023-02-12T00:59:24.402Z,98568.25
2023-02-12T01:00:26.225Z,98570.72
2023-02-12T01:01:28.041Z,98581.03
2023-02-12T01:02:29.864Z,98583.50
2023-02-12T01:03:31.831Z,98585.25
2023-02-12T01:04:33.709Z,98581.25
2023-02-12T01:05:36.194Z,98574.38
2023-02-12T01:06:38.029Z,98574.38
2023-02-12T01:07:40.982Z,98570.94
2023-02-12T01:08:42.835Z,98569.41
2023-02-12T01:09:45.830Z,98563.44
2023-02-12T01:10:54.855Z,98562.84
2023-02-12T01:11:56.769Z,98569.06
2023-02-12T01:12:58.698Z,98570.81
2023-02-12T01:14:00.545Z,98573.38
2023-02-12T01:15:02.452Z,98571.53
2023-02-12T01:16:24.523Z,98584.31
2023-02-12T01:17:26.453Z,98580.81
2023-02-12T01:18:28.282Z,98580.91
2023-02-12T01:19:30.172Z,98575.75
2023-02-12T01:20:32.048Z,98577.53
2023-02-12T01:21:34.935Z,98575.66
2023-02-12T01:22:37.473Z,98576.47
2023-02-12T01:23:39.525Z,98570.47
2023-02-12T01:24:41.433Z,98565.31
2023-02-12T01:25:43.273Z,98574.69
2023-02-12T01:26:45.125Z,98567.91
2023-02-12T01:27:47.018Z,98566.25
2023-02-12T01:28:50.533Z,98563.06
2023-02-12T01:29:52.593Z,98559.06
2023-02-12T01:30:54.474Z,98552.19
2023-02-12T01:31:56.408Z,98552.19
2023-02-12T01:32:58.531Z,98551.22
2023-02-12T01:34:01.332Z,98544.28
2023-02-12T01:35:03.622Z,98547.00
2023-02-12T01:36:05.794Z,98545.13
2023-02-12T01:37:07.639Z,98540.19
2023-02-12T01:38:09.718Z,98550.41
2023-02-12T01:39:11.825Z,98537.63
2023-02-12T01:40:15.793Z,98535.16
2023-02-12T01:41:19.195Z,98537.88
2023-02-12T01:42:21.147Z,98547.22
2023-02-12T01:43:23.018Z,98544.31
2023-02-12T01:44:28.697Z,98542.91
2023-02-12T01:45:50.768Z,98538.56
2023-02-12T01:46:57.576Z,98527.88
2023-02-12T01:48:00.505Z,98530.22
2023-02-12T01:49:03.765Z,98531.16
2023-02-12T01:50:07.135Z,98530.09
2023-02-12T01:51:11.560Z,98526.94
2023-02-12T01:52:13.316Z,98525.19
2023-02-12T01:53:20.322Z,98527.63
2023-02-12T01:54:22.961Z,98525.66
2023-02-12T01:55:25.119Z,98537.38
2023-02-12T01:56:27.006Z,98538.09
2023-02-12T01:57:31.468Z,98537.88
2023-02-12T01:58:36.417Z,98536.00
2023-02-12T01:59:40.510Z,98536.00
2023-02-12T02:00:42.511Z,98536.00
2023-02-12T02:01:44.874Z,98547.47
2023-02-12T02:02:49.590Z,98542.31
2023-02-12T02:03:52.938Z,98545.81
2023-02-12T02:04:57.962Z,98548.66
2023-02-12T02:06:02.964Z,98543.50
2023-02-12T02:07:06.774Z,98548.50
2023-02-12T02:08:09.192Z,98540.78
2023-02-12T02:09:11.112Z,98538.34
2023-02-12T02:10:13.007Z,98540.06
2023-02-12T02:11:33.530Z,98541.72
2023-02-12T02:12:54.098Z,98544.19
2023-02-12T02:14:15.706Z,98541.47
2023-02-12T02:15:17.631Z,98543.13
2023-02-12T02:16:24.453Z,98542.31
2023-02-12T02:17:39.897Z,98537.88
2023-02-12T02:18:41.688Z,98531.84
2023-02-12T02:19:43.476Z,98531.84
2023-02-12T02:20:48.403Z,98537.97
2023-02-12T02:21:58.438Z,98545.00
2023-02-12T02:23:09.615Z,98545.81
2023-02-12T02:24:11.397Z,98541.63
2023-02-12T02:25:28.622Z,98549.34
2023-02-12T02:26:30.458Z,98540.91
2023-02-12T02:27:45.448Z,98552.03
2023-02-12T02:28:47.269Z,98555.53
2023-02-12T02:29:52.101Z,98556.41
2023-02-12T02:31:12.760Z,98557.22
2023-02-12T02:32:18.642Z,98554.63
2023-02-12T02:33:33.191Z,98547.94
2023-02-12T02:34:37.797Z,98553.44
2023-02-12T02:35:43.894Z,98558.03
2023-02-12T02:37:00.175Z,98554.50
2023-02-12T02:38:18.128Z,98549.22
2023-02-12T02:39:29.860Z,98552.50
2023-02-12T02:40:40.529Z,98552.25
2023-02-12T02:41:51.477Z,98554.72
2023-02-12T02:42:53.236Z,98545.22
2023-02-12T02:43:56.054Z,98545.13
2023-02-12T02:45:05.133Z,98542.78
2023-02-12T02:46:16.400Z,98550.63
2023-02-12T02:47:21.335Z,98555.09
2023-02-12T02:48:36.097Z,98557.06
2023-02-12T02:49:41.119Z,98558.72
2023-02-12T02:50:46.288Z,98556.25
2023-02-12T02:51:50.296Z,98562.34
2023-02-12T02:53:04.171Z,98564.81
2023-02-12T02:54:10.108Z,98560.34
2023-02-12T02:55:13.404Z,98562.81
2023-02-12T02:56:17.957Z,98566.47
2023-02-12T02:57:26.594Z,98567.38
2023-02-12T02:58:32.566Z,98569.03
2023-02-12T02:59:37.115Z,98563.03
2023-02-12T03:00:44.391Z,98566.69
2023-02-12T03:01:53.603Z,98561.41
2023-02-12T03:03:27.837Z,98565.06
2023-02-12T03:04:36.105Z,98561.78
2023-02-12T03:05:44.201Z,98567.75
2023-02-12T03:06:56.423Z,98573.59
2023-02-12T03:08:00.826Z,98572.56
2023-02-12T03:09:06.396Z,98566.47
2023-02-12T03:10:13.041Z,98571.63
2023-02-12T03:11:18.120Z,98575.84
2023-02-12T03:12:23.835Z,98571.38
2023-02-12T03:13:28.141Z,98573.97
2023-02-12T03:14:32.833Z,98573.25
2023-02-12T03:15:39.581Z,98576.91
2023-02-12T03:16:49.929Z,98567.38
2023-02-12T03:17:51.973Z,98569.03
2023-02-12T03:18:59.527Z,98572.56
2023-02-12T03:20:21.558Z,98563.41
2023-02-12T03:21:28.501Z,98561.78
2023-02-12T03:22:35.089Z,98566.09
2023-02-12T03:23:43.852Z,98565.28
2023-02-12T03:24:47.809Z,98568.81
2023-02-12T03:25:49.709Z,98584.28
2023-02-12T03:26:55.003Z,98582.63
2023-02-12T03:28:17.071Z,98571.38
2023-02-12T03:29:18.953Z,98568.81
2023-02-12T03:30:22.463Z,98564.34
2023-02-12T03:31:30.444Z,98571.13
2023-02-12T03:32:41.258Z,98571.13
2023-02-12T03:34:01.426Z,98563.50
2023-02-12T03:35:14.378Z,98566.44
2023-02-12T03:36:18.892Z,98564.78
2023-02-12T03:37:35.852Z,98572.97
2023-02-12T03:38:37.590Z,98573.22
2023-02-12T03:40:01.340Z,98579.06
2023-02-12T03:41:12.732Z,98588.22
2023-02-12T03:42:36.016Z,98587.53
2023-02-12T03:43:44.268Z,98585.88
2023-02-12T03:44:46.135Z,98584.00
2023-02-12T03:46:06.747Z,98586.38
2023-02-12T03:47:23.536Z,98594.81
2023-02-12T03:48:25.342Z,98590.34
2023-02-12T03:49:30.750Z,98599.63
2023-02-12T03:51:01.808Z,98608.19
2023-02-12T03:52:04.319Z,98599.63
2023-02-12T03:53:07.011Z,98609.13
2023-02-12T03:54:10.154Z,98604.91
2023-02-12T03:55:12.604Z,98606.66
2023-02-12T03:56:18.387Z,98602.53
2023-02-12T03:57:22.121Z,98606.91
2023-02-12T03:58:27.335Z,98607.72
2023-02-12T03:59:29.354Z,98601.72
2023-02-12T04:00:31.377Z,98597.38
2023-02-12T04:01:35.775Z,98603.47
2023-02-12T04:02:37.692Z,98605.13
2023-02-12T04:03:40.021Z,98609.47
2023-02-12T04:04:42.182Z,98608.41
2023-02-12T04:05:44.086Z,98603.97
2023-02-12T04:06:47.345Z,98611.59
2023-02-12T04:07:49.792Z,98602.09
2023-02-12T04:08:52.350Z,98607.25
2023-02-12T04:09:54.250Z,98610.53
2023-02-12T04:11:08.757Z,98613.13
2023-02-12T04:12:29.424Z,98607.25
2023-02-12T04:13:42.744Z,98600.47
2023-02-12T04:15:03.260Z,98613.38
2023-02-12T04:16:16.278Z,98618.63
2023-02-12T04:17:36.860Z,98623.69
2023-02-12T04:18:42.419Z,98615.94
2023-02-12T04:19:55.857Z,98624.50
2023-02-12T04:21:16.547Z,98618.53
2023-02-12T04:22:37.274Z,98622.03
2023-02-12T04:23:45.226Z,98614.50
2023-02-12T04:24:51.388Z,98613.78
2023-02-12T04:26:02.599Z,98610.38
2023-02-12T04:27:17.602Z,98606.91
2023-02-12T04:28:28.844Z,98609.34
2023-02-12T04:29:49.219Z,98604.19
2023-02-12T04:31:04.316Z,98608.75
2023-02-12T04:32:12.829Z,98614.94
2023-02-12T04:33:19.126Z,98614.22
2023-02-12T04:34:35.757Z,98610.75
2023-02-12T04:35:47.543Z,98613.31
2023-02-12T04:37:08.084Z,98602.41
2023-02-12T04:38:12.043Z,98609.22
2023-02-12T04:39:18.325Z,98606.41
2023-02-12T04:40:20.866Z,98600.41
2023-02-12T04:41:22.934Z,98601.34
2023-02-12T04:42:24.882Z,98602.28
2023-02-12T04:43:37.130Z,98610.75
2023-02-12T04:44:40.535Z,98614.94
2023-02-12T04:45:42.635Z,98618.38
2023-02-12T04:46:45.212Z,98620.94
2023-02-12T04:47:47.414Z,98619.41
2023-02-12T04:48:52.404Z,98618.69
2023-02-12T04:49:54.268Z,98613.66
2023-02-12T04:50:56.248Z,98617.06
2023-02-12T04:51:58.443Z,98621.16
2023-02-12T04:53:00.245Z,98622.22
2023-02-12T04:54:02.075Z,98622.22
2023-02-12T04:55:04.025Z,98620.44
2023-02-12T04:56:06.096Z,98620.44
2023-02-12T04:57:08.049Z,98625.50
2023-02-12T04:58:10.191Z,98624.44
2023-02-12T04:59:12.310Z,98624.34
2023-02-12T05:00:14.712Z,98630.22
2023-02-12T05:01:16.589Z,98627.53
2023-02-12T05:02:18.521Z,98628.34
2023-02-12T05:03:20.373Z,98635.97
2023-02-12T05:04:22.204Z,98628.13
2023-02-12T05:05:24.493Z,98635.97
2023-02-12T05:06:26.516Z,98637.00
2023-02-12T05:07:28.449Z,98633.50
2023-02-12T05:08:30.330Z,98635.13
2023-02-12T05:09:32.145Z,98643.72
2023-02-12T05:10:33.990Z,98645.44
2023-02-12T05:11:35.890Z,98642.16
2023-02-12T05:12:37.729Z,98636.19
2023-02-12T05:13:39.635Z,98647.31
2023-02-12T05:14:41.457Z,98650.59
2023-02-12T05:15:43.363Z,98648.88
2023-02-12T05:16:45.328Z,98647.22
2023-02-12T05:17:47.282Z,98651.66
2023-02-12T05:18:49.226Z,98657.16
2023-02-12T05:19:51.226Z,98655.50
2023-02-12T05:20:57.372Z,98661.38
2023-02-12T05:21:59.263Z,98659.50
2023-02-12T05:23:01.141Z,98660.34
2023-02-12T05:24:03.479Z,98667.03
2023-02-12T05:25:05.887Z,98663.63
2023-02-12T05:26:15.465Z,98671.25
2023-02-12T05:27:17.406Z,98666.94
2023-02-12T05:28:19.345Z,98664.44
2023-02-12T05:29:21.403Z,98667.13
2023-02-12T05:30:23.309Z,98673.44
2023-02-12T05:31:25.386Z,98667.59
2023-02-12T05:32:27.349Z,98666.88
2023-02-12T05:33:29.280Z,98671.13
2023-02-12T05:34:31.179Z,98668.53
2023-02-12T05:35:35.025Z,98685.53
2023-02-12T05:36:37.070Z,98682.00
2023-02-12T05:37:38.987Z,98677.69
2023-02-12T05:38:40.907Z,98679.31
2023-02-12T05:39:42.782Z,98679.66
2023-02-12T05:40:44.794Z,98680.59
2023-02-12T05:41:46.697Z,98682.25
2023-02-12T05:42:48.649Z,98684.59
2023-02-12T05:43:50.868Z,98676.03
2023-02-12T05:44:52.751Z,98686.25
2023-02-12T05:45:54.868Z,98682.00
2023-02-12T05:46:56.891Z,98690.69
2023-02-12T05:47:58.723Z,98690.69
2023-02-12T05:49:00.670Z,98688.81
2023-02-12T05:50:02.682Z,98687.06
2023-02-12T05:51:15.425Z,98689.53
2023-02-12T05:52:17.334Z,98688.47
2023-02-12T05:53:19.236Z,98684.13
2023-02-12T05:54:21.055Z,98692.63
2023-02-12T05:55:22.846Z,98685.69
2023-02-12T05:56:26.225Z,98683.94
2023-02-12T05:57:28.309Z,98690.75
2023-02-12T05:58:30.195Z,98686.31
2023-02-12T05:59:32.584Z,98687.94
2023-02-12T06:00:34.665Z,98696.72
2023-02-12T06:01:37.876Z,98698.50
2023-02-12T06:02:39.845Z,98697.78
2023-02-12T06:03:42.469Z,98703.16
2023-02-12T06:04:45.910Z,98703.16
2023-02-12T06:05:52.282Z,98699.75
2023-02-12T06:06:56.044Z,98695.63
2023-02-12T06:07:57.899Z,98692.56
2023-02-12T06:09:00.450Z,98696.06
2023-02-12T06:10:02.388Z,98699.34
2023-02-12T06:11:08.401Z,98708.84
2023-02-12T06:12:10.327Z,98706.97
2023-02-12T06:13:12.163Z,98707.81
2023-02-12T06:14:15.528Z,98712.97
2023-02-12T06:15:17.389Z,98711.31
2023-02-12T06:16:23.989Z,98711.31
2023-02-12T06:17:26.049Z,98722.47
2023-02-12T06:18:28.403Z,98720.81
2023-02-12T06:19:30.333Z,98718.25
2023-02-12T06:20:32.186Z,98726.28
2023-02-12T06:21:34.504Z,98722.78
2023-02-12T06:22:38.663Z,98712.38
2023-02-12T06:23:40.664Z,98716.69
2023-02-12T06:24:42.701Z,98724.88
2023-02-12T06:25:44.550Z,98730.75
2023-02-12T06:26:46.625Z,98725.38
2023-02-12T06:27:48.683Z,98727.72
2023-02-12T06:28:51.396Z,98726.56
2023-02-12T06:29:53.261Z,98725.53
2023-02-12T06:30:55.303Z,98733.28
2023-02-12T06:31:57.310Z,98729.75
2023-02-12T06:32:59.342Z,98733.16
2023-02-12T06:34:03.384Z,98736.47
2023-02-12T06:35:05.495Z,98733.06
2023-02-12T06:36:07.376Z,98726.16
2023-02-12T06:37:09.371Z,98731.31
2023-02-12T06:38:12.633Z,98733.75
2023-02-12T06:39:15.201Z,98739.78
2023-02-12T06:40:17.283Z,98741.41
2023-02-12T06:41:19.576Z,98744.94
2023-02-12T06:42:21.436Z,98745.13
2023-02-12T06:43:23.325Z,98744.22
2023-02-12T06:44:25.122Z,98744.94
2023-02-12T06:45:27.011Z,98748.53
2023-02-12T06:46:28.913Z,98745.13
2023-02-12T06:47:30.966Z,98745.94
2023-02-12T06:48:33.321Z,98747.59
2023-02-12T06:49:35.197Z,98748.53
2023-02-12T06:50:37.262Z,98751.94
2023-02-12T06:51:41.530Z,98744.22
2023-02-12T06:52:43.423Z,98748.63
2023-02-12T06:53:45.506Z,98740.06
2023-02-12T06:54:47.369Z,98745.13
2023-02-12T06:55:49.394Z,98735.53
2023-02-12T06:56:51.154Z,98742.34
2023-02-12T06:57:53.134Z,98743.25
2023-02-12T06:58:59.882Z,98735.44
2023-02-12T07:00:01.768Z,98738.09
2023-02-12T07:01:15.335Z,98737.19
2023-02-12T07:02:17.282Z,98738.31
2023-02-12T07:03:19.159Z,98738.31
2023-02-12T07:04:21.820Z,98746.78
2023-02-12T07:05:24.454Z,98746.66
2023-02-12T07:06:27.371Z,98750.09
2023-02-12T07:07:29.241Z,98743.25
2023-02-12T07:08:31.106Z,98745.94
2023-02-12T07:09:33.038Z,98745.94
2023-02-12T07:10:34.936Z,98749.47
2023-02-12T07:11:38.474Z,98742.28
2023-02-12T07:12:40.600Z,98743.19
2023-02-12T07:13:43.093Z,98744.16
2023-02-12T07:14:44.928Z,98746.94
2023-02-12T07:15:46.749Z,98751.97
2023-02-12T07:16:48.562Z,98750.94
2023-02-12T07:17:50.465Z,98750.84
2023-02-12T07:18:52.497Z,98750.84
2023-02-12T07:19:54.389Z,98752.34
2023-02-12T07:20:56.737Z,98747.91
2023-02-12T07:21:58.607Z,98752.16
2023-02-12T07:23:00.557Z,98746.91
2023-02-12T07:24:02.472Z,98750.19
2023-02-12T07:25:04.427Z,98751.72
2023-02-12T07:26:11.492Z,98752.53
2023-02-12T07:27:13.341Z,98749.84
2023-02-12T07:28:15.207Z,98756.88
2023-02-12T07:29:17.565Z,98758.75
2023-02-12T07:30:20.089Z,98751.72
2023-02-12T07:31:23.316Z,98760.16
2023-02-12T07:32:25.202Z,98759.34
2023-02-12T07:33:27.104Z,98760.41
2023-02-12T07:34:29.141Z,98762.03
2023-02-12T07:35:31.023Z,98766.16
2023-02-12T07:36:33.725Z,98755.72
2023-02-12T07:37:35.627Z,98762.84
2023-02-12T07:38:40.128Z,98760.41
2023-02-12T07:39:41.928Z,98762.66
2023-02-12T07:40:43.816Z,98763.47
2023-02-12T07:41:45.756Z,98769.44
2023-02-12T07:42:50.258Z,98770.28
2023-02-12T07:43:56.342Z,98771.91
2023-02-12T07:44:58.167Z,98764.88
2023-02-12T07:46:06.843Z,98770.75
2023-02-12T07:47:08.681Z,98770.75
2023-02-12T07:48:10.618Z,98773.34
2023-02-12T07:49:14.137Z,98772.44
2023-02-12T07:50:16.163Z,98775.59
2023-02-12T07:51:19.709Z,98777.25
2023-02-12T07:52:21.542Z,98774.56
2023-02-12T07:53:23.462Z,98778.88
2023-02-12T07:54:25.475Z,98774.78
2023-02-12T07:55:27.342Z,98777.44
2023-02-12T07:56:31.290Z,98779.31
2023-02-12T07:57:34.957Z,98774.16
2023-02-12T07:58:37.120Z,98772.44
2023-02-12T07:59:39.022Z,98776.75
2023-02-12T08:00:40.869Z,98780.97
2023-02-12T08:01:44.031Z,98781.59
2023-02-12T08:02:51.567Z,98774.56
2023-02-12T08:03:53.921Z,98776.91
2023-02-12T08:04:58.660Z,98770.81
2023-02-12T08:06:00.479Z,98772.47
2023-02-12T08:07:03.166Z,98779.38
2023-02-12T08:08:05.055Z,98775.16
2023-02-12T08:09:08.567Z,98776.09
2023-02-12T08:10:10.641Z,98778.69
2023-02-12T08:11:13.301Z,98776.91
2023-02-12T08:12:15.128Z,98778.69
2023-02-12T08:13:16.988Z,98779.50
2023-02-12T08:14:20.364Z,98782.78
2023-02-12T08:15:22.294Z,98780.19
2023-02-12T08:16:25.607Z,98777.53
2023-02-12T08:17:27.542Z,98782.56
2023-02-12T08:18:30.530Z,98779.75
2023-02-12T08:19:32.425Z,98784.91
2023-02-12T08:20:34.859Z,98789.16
2023-02-12T08:21:36.910Z,98787.28
2023-02-12T08:22:38.744Z,98787.41
2023-02-12T08:23:41.044Z,98787.28
2023-02-12T08:24:43.672Z,98786.25
2023-02-12T08:25:45.593Z,98789.53
2023-02-12T08:26:47.542Z,98787.56
2023-02-12T08:27:49.447Z,98789.91
2023-02-12T08:28:53.835Z,98793.19
2023-02-12T08:29:55.738Z,98792.16
2023-02-12T08:31:01.727Z,98785.94
2023-02-12T08:32:04.429Z,98796.28
2023-02-12T08:33:06.283Z,98786.06
2023-02-12T08:34:12.322Z,98801.44
2023-02-12T08:35:14.283Z,98797.81
2023-02-12T08:36:17.640Z,98795.94
2023-02-12T08:37:19.533Z,98800.28
2023-02-12T08:38:21.413Z,98806.38
2023-02-12T08:39:24.474Z,98799.69
2023-02-12T08:40:26.532Z,98802.38
2023-02-12T08:41:29.148Z,98805.78
2023-02-12T08:42:30.972Z,98810.00
2023-02-12T08:43:33.434Z,98806.38
2023-02-12T08:44:35.676Z,98807.09
2023-02-12T08:45:37.554Z,98811.31
2023-02-12T08:46:40.677Z,98805.22
2023-02-12T08:47:42.635Z,98800.75
2023-02-12T08:48:44.593Z,98807.59
2023-02-12T08:49:46.489Z,98810.16
2023-02-12T08:50:48.344Z,98809.34
2023-02-12T08:51:51.621Z,98804.38
2023-02-12T08:52:53.425Z,98812.13
2023-02-12T08:53:57.116Z,98807.78
2023-02-12T08:54:59.144Z,98809.44
2023-02-12T08:56:01.242Z,98808.50
2023-02-12T08:57:04.095Z,98815.34
2023-02-12T08:58:05.908Z,98820.28
2023-02-12T08:59:08.394Z,98813.25
2023-02-12T09:00:10.912Z,98811.38
2023-02-12T09:01:14.577Z,98819.00
2023-02-12T09:02:16.436Z,98816.41
2023-02-12T09:03:18.440Z,98811.13
2023-02-12T09:04:22.360Z,98813.50
2023-02-12T09:05:24.243Z,98811.63
2023-02-12T09:06:26.843Z,98814.09
2023-02-12T09:07:28.719Z,98812.34
2023-02-12T09:08:31.259Z,98821.00
2023-02-12T09:09:33.141Z,98822.69
2023-02-12T09:10:38.949Z,98821.00
2023-02-12T09:11:41.117Z,98825.47
2023-02-12T09:12:42.997Z,98821.13
2023-02-12T09:13:45.567Z,98827.13
2023-02-12T09:14:47.451Z,98830.63
2023-02-12T09:15:49.282Z,98835.00
2023-02-12T09:16:53.359Z,98830.75
2023-02-12T09:17:55.563Z,98834.88
2023-02-12T09:18:57.869Z,98831.34
2023-02-12T09:20:01.747Z,98833.72
2023-02-12T09:21:07.878Z,98837.81
2023-02-12T09:22:09.782Z,98838.66
2023-02-12T09:23:13.278Z,98840.31
2023-02-12T09:24:15.154Z,98837.59
2023-02-12T09:25:16.992Z,98836.78
2023-02-12T09:26:23.398Z,98838.44
2023-02-12T09:27:25.322Z,98840.06
2023-02-12T09:28:27.288Z,98840.06
2023-02-12T09:29:29.099Z,98845.13
2023-02-12T09:30:31.105Z,98833.84
2023-02-12T09:31:33.812Z,98831.97
2023-02-12T09:32:35.869Z,98841.28
2023-02-12T09:33:38.487Z,98839.41
2023-02-12T09:34:40.292Z,98838.44
2023-02-12T09:35:42.408Z,98843.16
2023-02-12T09:36:44.366Z,98839.84
2023-02-12T09:37:46.376Z,98845.03
2023-02-12T09:38:49.353Z,98843.16
2023-02-12T09:39:51.353Z,98833.84
2023-02-12T09:40:56.338Z,98844.41
2023-02-12T09:42:04.504Z,98844.63
2023-02-12T09:43:18.347Z,98849.78
2023-02-12T09:44:23.105Z,98841.13
2023-02-12T09:45:27.254Z,98848.78
2023-02-12T09:46:34.183Z,98851.00
2023-02-12T09:47:36.244Z,98845.59
2023-02-12T09:48:50.301Z,98842.91
2023-02-12T09:50:01.192Z,98850.34
2023-02-12T09:51:07.539Z,98846.91
2023-02-12T09:52:15.333Z,98851.16
2023-02-12T09:53:20.012Z,98846.59
2023-02-12T09:54:24.312Z,98851.75
2023-02-12T09:55:29.467Z,98857.13
2023-02-12T09:56:31.817Z,98856.44
2023-02-12T09:57:36.419Z,98851.97
2023-02-12T09:58:52.183Z,98860.22
2023-02-12T10:00:07.719Z,98857.50
2023-02-12T10:01:17.239Z,98856.69
2023-02-12T10:02:21.140Z,98852.31
2023-02-12T10:03:23.604Z,98848.09
2023-02-12T10:04:27.602Z,98843.66
2023-02-12T10:05:35.663Z,98851.31
2023-02-12T10:06:42.223Z,98852.13
2023-02-12T10:07:44.239Z,98851.16
2023-02-12T10:08:49.223Z,98857.03
2023-02-12T10:10:08.146Z,98857.03
2023-02-12T10:11:36.176Z,98859.41
2023-02-12T10:13:04.417Z,98858.47
2023-02-12T10:14:18.844Z,98858.25
2023-02-12T10:15:39.469Z,98860.81
2023-02-12T10:16:41.361Z,98860.72
2023-02-12T10:17:52.010Z,98870.91
2023-02-12T10:19:00.154Z,98862.25
2023-02-12T10:20:10.368Z,98858.13
2023-02-12T10:21:18.921Z,98861.53
2023-02-12T10:22:29.004Z,98859.66
2023-02-12T10:23:40.188Z,98859.44
2023-02-12T10:24:54.071Z,98856.72
2023-02-12T10:26:00.953Z,98862.50
2023-02-12T10:27:11.834Z,98864.16
2023-02-12T10:28:17.223Z,98866.75
2023-02-12T10:29:19.348Z,98869.31
2023-02-12T10:30:21.259Z,98866.59
2023-02-12T10:31:30.583Z,98870.75
2023-02-12T10:32:34.964Z,98868.88
2023-02-12T10:33:43.109Z,98869.69
2023-02-12T10:34:45.640Z,98869.69
2023-02-12T10:35:51.300Z,98874.84
2023-02-12T10:36:57.286Z,98865.31
2023-02-12T10:38:03.507Z,98872.16
2023-02-12T10:39:19.063Z,98867.91
2023-02-12T10:40:23.915Z,98867.91
2023-02-12T10:41:28.754Z,98868.88
2023-02-12T10:42:37.435Z,98869.56
2023-02-12T10:43:39.585Z,98876.25
2023-02-12T10:44:41.473Z,98865.09
2023-02-12T10:45:44.431Z,98861.56
2023-02-12T10:46:46.637Z,98858.16
2023-02-12T10:47:52.238Z,98867.53
2023-02-12T10:48:54.988Z,98864.84
2023-02-12T10:49:58.813Z,98874.13
2023-02-12T10:51:03.982Z,98871.44
2023-02-12T10:52:12.061Z,98862.75
2023-02-12T10:53:18.846Z,98859.47
2023-02-12T10:54:39.106Z,98869.22
2023-02-12T10:55:41.034Z,98866.72
2023-02-12T10:56:43.710Z,98867.53
2023-02-12T10:57:45.769Z,98863.22
2023-02-12T10:58:50.968Z,98865.22
2023-02-12T10:59:54.650Z,98861.56
2023-02-12T11:00:58.824Z,98860.63
2023-02-12T11:02:00.953Z,98865.66
2023-02-12T11:03:11.776Z,98858.63
2023-02-12T11:04:25.336Z,98856.75
2023-02-12T11:05:29.801Z,98859.22
2023-02-12T11:06:32.883Z,98850.63
2023-02-12T11:07:47.098Z,98848.66
2023-02-12T11:08:50.147Z,98852.88
2023-02-12T11:09:53.649Z,98850.06
2023-02-12T11:10:55.597Z,98853.56
2023-02-12T11:11:58.558Z,98851.94
2023-02-12T11:13:01.215Z,98850.28
2023-02-12T11:14:04.817Z,98848.66
2023-02-12T11:15:06.769Z,98852.06
2023-02-12T11:16:09.504Z,98852.88
2023-02-12T11:17:21.183Z,98854.63
2023-02-12T11:18:27.752Z,98856.88
2023-02-12T11:19:30.738Z,98848.19
2023-02-12T11:20:39.456Z,98849.25
2023-02-12T11:21:41.268Z,98850.38
2023-02-12T11:22:57.825Z,98847.81
2023-02-12T11:24:23.656Z,98847.94
2023-02-12T11:25:27.873Z,98848.88
2023-02-12T11:26:31.058Z,98852.41
2023-02-12T11:27:33.014Z,98851.00
2023-02-12T11:28:37.184Z,98844.88
2023-02-12T11:29:40.401Z,98852.41
2023-02-12T11:30:53.626Z,98851.47
2023-02-12T11:32:08.789Z,98846.88
2023-02-12T11:33:31.089Z,98845.91
2023-02-12T11:34:33.088Z,98850.06
2023-02-12T11:35:36.369Z,98850.78
2023-02-12T11:36:44.173Z,98855.84
2023-02-12T11:37:47.946Z,98854.88
2023-02-12T11:38:55.037Z,98846.41
2023-02-12T11:39:57.163Z,98853.34
2023-02-12T11:41:01.575Z,98850.06
2023-02-12T11:42:16.036Z,98845.91
2023-02-12T11:43:19.554Z,98846.78
2023-02-12T11:44:22.029Z,98848.28
2023-02-12T11:45:27.687Z,98846.41
2023-02-12T11:46:30.152Z,98845.34
2023-02-12T11:47:37.063Z,98837.47
2023-02-12T11:48:40.615Z,98838.16
2023-02-12T11:50:03.197Z,98834.06
2023-02-12T11:51:09.453Z,98839.25
2023-02-12T11:52:20.755Z,98838.16
2023-02-12T11:53:28.562Z,98842.16
2023-02-12T11:54:33.334Z,98841.09
2023-02-12T11:55:41.761Z,98840.88
2023-02-12T11:56:45.529Z,98833.72
2023-02-12T11:57:51.973Z,98847.91
2023-02-12T11:58:56.465Z,98833.09
2023-02-12T12:00:01.089Z,98832.88
2023-02-12T12:01:03.421Z,98838.75
2023-02-12T12:02:21.026Z,98841.09
2023-02-12T12:03:29.118Z,98842.63
2023-02-12T12:04:35.505Z,98833.78
2023-02-12T12:05:41.426Z,98835.44
2023-02-12T12:06:57.013Z,98834.47
2023-02-12T12:08:01.393Z,98836.16
2023-02-12T12:09:07.331Z,98834.47
2023-02-12T12:10:28.466Z,98831.78
2023-02-12T12:11:39.185Z,98833.31
2023-02-12T12:12:44.593Z,98832.38
2023-02-12T12:13:57.318Z,98834.69
2023-02-12T12:15:22.160Z,98829.41
2023-02-12T12:17:01.509Z,98831.88
2023-02-12T12:18:40.949Z,98829.28
2023-02-12T12:19:55.187Z,98830.00
2023-02-12T12:21:02.362Z,98833.28
2023-02-12T12:22:23.211Z,98827.84
2023-02-12T12:23:29.538Z,98825.97
2023-02-12T12:24:49.912Z,98831.84
2023-02-12T12:25:55.025Z,98823.94
2023-02-12T12:27:03.880Z,98825.72
2023-02-12T12:28:13.763Z,98817.16
2023-02-12T12:29:21.147Z,98821.75
2023-02-12T12:30:39.262Z,98821.75
2023-02-12T12:31:43.748Z,98827.63
2023-02-12T12:32:48.277Z,98818.66
2023-02-12T12:33:51.887Z,98817.69
2023-02-12T12:34:53.743Z,98814.06
2023-02-12T12:35:56.167Z,98814.75
2023-02-12T12:37:04.370Z,98815.47
2023-02-12T12:38:26.801Z,98816.16
2023-02-12T12:39:47.660Z,98805.66
2023-02-12T12:41:01.146Z,98810.72
2023-02-12T12:42:16.062Z,98820.16
2023-02-12T12:43:19.564Z,98814.81
2023-02-12T12:44:34.606Z,98813.06
2023-02-12T12:45:50.890Z,98808.81